Terminal Aerodrome Forecast
Issued by NWS

Home | Current Version | Previous Version | Text Only | Print | Product List | Glossary On
Versions: 1 2 3 4 5 6 7 8 9 10 11 12 13 14 15 16 17 18 19 20 21 22 23 24 25 26 27 28
000
FTUS45 KBOI 250016 AAB
TAFMYL
TAF AMD
KMYL 250016Z 2500/2524 VRB03KT 2SM RA BR BKN015 OVC025
     FM250300 VRB05KT 3SM -RA BR SCT015 OVC035
     FM250700 VRB03KT 2SM -SHSN BR BKN008 OVC015
     FM252000 30010KT 5SM -RA BR SCT015 OVC025=

USA.gov is the U.S. government's official web portal to all federal, state and local government web resources and services.